createdAt,value
2018-12-07T00:00:32.297Z,24.17
2018-12-07T00:03:00.879Z,24.67
2018-12-07T00:05:29.588Z,21.70
2018-12-07T00:07:58.105Z,24.20
2018-12-07T00:10:26.672Z,31.30
2018-12-07T00:12:55.352Z,23.73
2018-12-07T00:15:23.915Z,25.70
2018-12-07T00:17:52.464Z,23.40
2018-12-07T00:20:20.992Z,25.50
2018-12-07T00:22:49.540Z,24.03
2018-12-07T00:25:18.243Z,22.87
2018-12-07T00:27:46.749Z,23.43
2018-12-07T00:30:15.315Z,24.57
2018-12-07T00:32:43.851Z,27.30
2018-12-07T00:35:12.413Z,28.73
2018-12-07T00:37:40.921Z,26.07
2018-12-07T00:40:09.497Z,23.77
2018-12-07T00:42:38.123Z,26.03
2018-12-07T00:45:06.838Z,23.03
2018-12-07T00:47:35.378Z,20.53
2018-12-07T00:50:04.647Z,22.33
2018-12-07T00:52:33.209Z,21.07
2018-12-07T00:55:02.034Z,20.17
2018-12-07T00:57:30.563Z,27.70
2018-12-07T00:59:59.305Z,23.80
2018-12-07T01:02:27.853Z,21.30
2018-12-07T01:04:56.425Z,20.63
2018-12-07T01:07:24.960Z,21.70
2018-12-07T01:09:53.509Z,24.63
2018-12-07T01:12:22.049Z,23.10
2018-12-07T01:14:50.834Z,23.97
2018-12-07T01:17:19.393Z,24.30
2018-12-07T01:19:48.216Z,19.00
2018-12-07T01:22:16.761Z,18.50
2018-12-07T01:24:45.719Z,21.93
2018-12-07T01:27:14.257Z,24.20
2018-12-07T01:29:42.814Z,23.23
2018-12-07T01:32:11.350Z,32.33
2018-12-07T01:34:40.150Z,24.53
2018-12-07T01:37:08.710Z,25.80
2018-12-07T01:39:37.307Z,27.70
2018-12-07T01:42:05.841Z,25.83
2018-12-07T01:44:34.573Z,28.30
2018-12-07T01:47:03.091Z,22.93
2018-12-07T01:49:31.672Z,25.23
2018-12-07T01:52:00.216Z,23.90
2018-12-07T01:54:28.818Z,24.37
2018-12-07T01:56:57.344Z,27.37
2018-12-07T01:59:26.123Z,26.43
2018-12-07T02:01:54.671Z,25.67
2018-12-07T02:04:23.222Z,26.50
2018-12-07T02:06:51.757Z,25.43
2018-12-07T02:09:20.312Z,22.67
2018-12-07T02:11:48.957Z,32.23
2018-12-07T02:14:17.688Z,26.17
2018-12-07T02:16:46.206Z,26.30
2018-12-07T02:19:15.030Z,25.90
2018-12-07T02:21:43.575Z,28.27
2018-12-07T02:24:12.411Z,24.40
2018-12-07T02:26:40.947Z,27.40
2018-12-07T02:29:09.521Z,22.87
2018-12-07T02:31:38.052Z,25.63
2018-12-07T02:34:06.659Z,26.83
2018-12-07T02:36:35.206Z,21.97
2018-12-07T02:39:04.497Z,22.10
2018-12-07T02:41:33.033Z,22.73
2018-12-07T02:44:01.922Z,22.13
2018-12-07T02:46:30.478Z,19.23
2018-12-07T02:48:59.025Z,24.63
2018-12-07T02:51:27.552Z,23.83
2018-12-07T02:53:56.111Z,21.07
2018-12-07T02:56:24.637Z,25.10
2018-12-07T02:58:53.197Z,22.07
2018-12-07T03:01:21.739Z,24.00
2018-12-07T03:03:50.292Z,22.30
2018-12-07T03:06:18.803Z,24.07
2018-12-07T03:08:47.333Z,25.27
2018-12-07T03:11:15.858Z,24.00
2018-12-07T03:13:44.411Z,19.33
2018-12-07T03:16:12.919Z,20.03
2018-12-07T03:18:41.453Z,23.40
2018-12-07T03:21:09.997Z,20.60
2018-12-07T03:23:38.564Z,22.33
2018-12-07T03:26:07.117Z,21.77
2018-12-07T03:28:35.911Z,18.70
2018-12-07T03:31:04.471Z,23.60
2018-12-07T03:33:33.023Z,21.57
2018-12-07T03:36:01.559Z,18.37
2018-12-07T03:38:30.119Z,21.07
2018-12-07T03:40:58.651Z,18.23
2018-12-07T03:43:27.443Z,16.60
2018-12-07T03:45:55.967Z,18.53
2018-12-07T03:48:24.573Z,17.93
2018-12-07T03:50:53.116Z,18.67
2018-12-07T03:53:21.659Z,19.63
2018-12-07T03:55:50.254Z,16.67
2018-12-07T03:58:18.795Z,16.70
2018-12-07T04:00:47.323Z,19.87
2018-12-07T04:03:15.872Z,16.07
2018-12-07T04:05:44.408Z,17.23
2018-12-07T04:08:12.947Z,18.67
2018-12-07T04:10:41.503Z,16.17
2018-12-07T04:13:10.318Z,19.70
2018-12-07T04:15:38.872Z,18.10
2018-12-07T04:18:08.243Z,18.13
2018-12-07T04:20:36.843Z,17.93
2018-12-07T04:23:05.529Z,18.33
2018-12-07T04:25:34.078Z,20.70
2018-12-07T04:28:02.843Z,24.03
2018-12-07T04:30:31.355Z,20.27
2018-12-07T04:33:00.130Z,24.83
2018-12-07T04:35:28.659Z,25.33
2018-12-07T04:37:57.200Z,25.67
2018-12-07T04:40:25.728Z,25.63
2018-12-07T04:42:54.298Z,26.80
2018-12-07T04:45:22.848Z,27.03
2018-12-07T04:47:51.403Z,28.30
2018-12-07T04:50:19.989Z,25.07
2018-12-07T04:52:48.531Z,25.40
2018-12-07T04:55:17.180Z,25.53
2018-12-07T04:57:45.751Z,28.73
2018-12-07T05:00:14.309Z,25.13
2018-12-07T05:02:42.940Z,26.67
2018-12-07T05:05:11.520Z,23.13
2018-12-07T05:07:40.067Z,24.13
2018-12-07T05:10:08.620Z,27.90
2018-12-07T05:12:37.190Z,25.80
2018-12-07T05:15:06.592Z,25.37
2018-12-07T05:17:35.136Z,24.73
2018-12-07T05:20:04.307Z,21.07
2018-12-07T05:22:32.857Z,24.03
2018-12-07T05:25:01.405Z,21.03
2018-12-07T05:27:30.007Z,23.97
2018-12-07T05:29:58.563Z,21.43
2018-12-07T05:32:27.094Z,21.73
2018-12-07T05:34:55.605Z,18.70
2018-12-07T05:37:24.521Z,23.50
2018-12-07T05:39:53.049Z,22.27
2018-12-07T05:42:21.581Z,20.13
2018-12-07T05:44:50.117Z,22.00
2018-12-07T05:47:18.654Z,18.40
2018-12-07T05:49:47.177Z,18.63
2018-12-07T05:52:15.713Z,22.43
2018-12-07T05:54:44.241Z,20.47
2018-12-07T05:57:12.787Z,24.70
2018-12-07T05:59:41.414Z,21.70
2018-12-07T06:02:09.947Z,26.00
2018-12-07T06:04:38.475Z,24.97
2018-12-07T06:07:07.124Z,28.10
2018-12-07T06:09:35.629Z,23.10
2018-12-07T06:12:04.516Z,21.10
2018-12-07T06:14:33.052Z,22.80
2018-12-07T06:17:01.825Z,25.03
2018-12-07T06:19:30.423Z,23.50
2018-12-07T06:21:59.201Z,23.93
2018-12-07T06:24:27.811Z,25.00
2018-12-07T06:26:56.349Z,23.53
2018-12-07T06:29:24.857Z,25.40
2018-12-07T06:31:53.370Z,24.43
2018-12-07T06:34:21.867Z,20.23
2018-12-07T06:36:51.027Z,19.43
2018-12-07T06:39:19.528Z,20.53
2018-12-07T06:41:48.305Z,19.30
2018-12-07T06:44:16.822Z,23.33
2018-12-07T06:46:45.357Z,18.60
2018-12-07T06:49:14.213Z,27.70
2018-12-07T06:51:43.879Z,20.70
2018-12-07T06:54:12.440Z,20.77
2018-12-07T06:56:40.957Z,20.70
2018-12-07T06:59:09.488Z,21.83
2018-12-07T07:01:38.225Z,22.63
2018-12-07T07:04:06.725Z,21.00
2018-12-07T07:06:35.265Z,19.07
2018-12-07T07:09:05.560Z,22.30
2018-12-07T07:11:34.472Z,19.27
2018-12-07T07:14:03.071Z,21.20
2018-12-07T07:16:31.617Z,22.80
2018-12-07T07:19:00.253Z,21.47
2018-12-07T07:21:28.805Z,22.23
2018-12-07T07:23:57.662Z,21.97
2018-12-07T07:26:26.313Z,22.07
2018-12-07T07:28:54.825Z,21.10
2018-12-07T07:31:23.430Z,18.33
2018-12-07T07:33:51.988Z,23.63
2018-12-07T07:36:20.530Z,20.90
2018-12-07T07:38:49.034Z,25.80
2018-12-07T07:41:17.568Z,23.50
2018-12-07T07:43:46.099Z,25.60
2018-12-07T07:46:14.651Z,24.60
2018-12-07T07:48:43.171Z,23.57
2018-12-07T07:51:11.928Z,24.07
2018-12-07T07:53:40.553Z,26.80
2018-12-07T07:56:15.464Z,25.17
2018-12-07T07:58:39.751Z,23.37
2018-12-07T08:01:08.257Z,25.73
2018-12-07T08:03:36.758Z,23.47
2018-12-07T08:06:05.292Z,25.87
2018-12-07T08:08:33.813Z,23.20
2018-12-07T08:11:02.363Z,23.20
2018-12-07T08:13:30.861Z,26.20
2018-12-07T08:15:59.478Z,21.27
2018-12-07T08:18:27.992Z,23.10
2018-12-07T08:20:56.621Z,24.43
2018-12-07T08:23:25.200Z,25.63
2018-12-07T08:25:54.146Z,23.67
2018-12-07T08:28:22.788Z,26.67
2018-12-07T08:30:52.608Z,26.40
2018-12-07T08:33:21.110Z,26.83
2018-12-07T08:35:49.657Z,29.37
2018-12-07T08:38:18.258Z,25.90
2018-12-07T08:40:46.872Z,30.40
2018-12-07T08:43:15.400Z,25.67
2018-12-07T08:45:43.948Z,29.03
2018-12-07T08:48:12.481Z,24.33
2018-12-07T08:50:41.001Z,29.87
2018-12-07T08:53:09.505Z,29.70
2018-12-07T08:55:38.065Z,28.87
2018-12-07T08:58:06.611Z,32.10
2018-12-07T09:00:35.150Z,34.83
2018-12-07T09:03:03.648Z,30.47
2018-12-07T09:05:32.423Z,30.50
2018-12-07T09:08:01.010Z,28.30
2018-12-07T09:10:29.542Z,29.37
2018-12-07T09:12:58.044Z,28.13
2018-12-07T09:15:26.566Z,26.90
2018-12-07T09:17:55.074Z,23.80
2018-12-07T09:20:23.592Z,25.80
2018-12-07T09:22:52.103Z,27.70
2018-12-07T09:25:22.444Z,27.17
2018-12-07T09:27:51.344Z,24.40
2018-12-07T09:30:20.266Z,28.30
2018-12-07T09:32:49.310Z,30.30
2018-12-07T09:35:18.817Z,28.63
2018-12-07T09:37:47.787Z,28.13
2018-12-07T09:40:16.354Z,28.90
2018-12-07T09:42:44.864Z,27.10
2018-12-07T09:45:13.596Z,30.27
2018-12-07T09:47:42.113Z,29.00
2018-12-07T09:50:10.892Z,27.93
2018-12-07T09:52:39.437Z,28.70
2018-12-07T09:55:07.983Z,27.80
2018-12-07T09:57:36.517Z,25.53
2018-12-07T10:00:06.072Z,27.97
2018-12-07T10:02:34.633Z,26.37
2018-12-07T10:05:03.185Z,29.90
2018-12-07T10:07:31.719Z,26.60
2018-12-07T10:10:00.273Z,27.10
2018-12-07T10:12:28.788Z,26.50
2018-12-07T10:14:57.687Z,29.37
2018-12-07T10:17:26.181Z,28.80
2018-12-07T10:19:54.965Z,30.47
2018-12-07T10:22:23.492Z,25.67
2018-12-07T10:24:52.085Z,25.47
2018-12-07T10:27:20.658Z,25.27
2018-12-07T10:29:49.296Z,24.90
2018-12-07T10:32:17.792Z,26.10
2018-12-07T10:34:46.358Z,25.23
2018-12-07T10:37:14.846Z,25.80
2018-12-07T10:39:43.415Z,26.50
2018-12-07T10:42:11.928Z,23.70
2018-12-07T10:44:47.228Z,25.20
2018-12-07T10:47:15.783Z,24.20
2018-12-07T10:49:44.557Z,26.13
2018-12-07T10:52:13.190Z,28.23
2018-12-07T10:54:41.856Z,26.70
2018-12-07T10:57:10.368Z,27.33
2018-12-07T10:59:38.935Z,25.93
2018-12-07T11:02:12.836Z,24.90
2018-12-07T11:04:46.707Z,24.83
2018-12-07T11:07:20.389Z,25.73
2018-12-07T11:09:54.365Z,26.83
2018-12-07T11:12:28.110Z,30.30
2018-12-07T11:15:01.950Z,26.77
2018-12-07T11:17:35.873Z,27.27
2018-12-07T11:20:09.977Z,26.83
2018-12-07T11:22:43.885Z,24.43
2018-12-07T11:25:17.958Z,25.23
2018-12-07T11:27:51.909Z,21.93
2018-12-07T11:30:29.598Z,23.33
2018-12-07T11:33:03.692Z,23.10
2018-12-07T11:35:34.820Z,25.30
2018-12-07T11:38:03.320Z,26.53
2018-12-07T11:40:31.871Z,26.07
2018-12-07T11:43:00.385Z,24.93
2018-12-07T11:45:29.208Z,24.93
2018-12-07T11:47:57.762Z,24.00
2018-12-07T11:50:26.325Z,23.83
2018-12-07T11:52:54.872Z,27.40
2018-12-07T11:55:23.587Z,30.13
2018-12-07T11:57:52.094Z,36.90
2018-12-07T12:00:20.669Z,36.07
2018-12-07T12:02:49.200Z,48.13
2018-12-07T12:05:17.730Z,41.87
2018-12-07T12:07:46.242Z,36.30
2018-12-07T12:10:14.829Z,38.10
2018-12-07T12:12:43.341Z,35.70
2018-12-07T12:15:11.882Z,28.93
2018-12-07T12:17:40.361Z,28.30
2018-12-07T12:20:09.359Z,25.67
2018-12-07T12:22:37.870Z,28.70
2018-12-07T12:25:06.584Z,28.37
2018-12-07T12:27:35.284Z,30.50
2018-12-07T12:30:04.124Z,27.33
2018-12-07T12:32:32.626Z,30.33
2018-12-07T12:35:01.179Z,31.90
2018-12-07T12:37:29.766Z,30.90
2018-12-07T12:39:58.543Z,34.40
2018-12-07T12:42:27.077Z,30.87
2018-12-07T12:44:55.601Z,34.57
2018-12-07T12:47:24.287Z,32.33
2018-12-07T12:49:52.880Z,35.33
2018-12-07T12:52:21.377Z,38.03
2018-12-07T12:54:49.934Z,40.13
2018-12-07T12:57:18.466Z,33.47
2018-12-07T12:59:47.008Z,35.53
2018-12-07T13:02:15.565Z,29.87
2018-12-07T13:04:44.120Z,31.77
2018-12-07T13:07:12.813Z,30.10
2018-12-07T13:09:41.383Z,29.37
2018-12-07T13:12:09.901Z,31.70
2018-12-07T13:14:38.679Z,27.13
2018-12-07T13:17:07.243Z,26.47
2018-12-07T13:19:35.944Z,26.07
2018-12-07T13:22:04.501Z,32.00
2018-12-07T13:24:33.087Z,31.90
2018-12-07T13:27:01.644Z,28.60
2018-12-07T13:29:30.220Z,27.90
2018-12-07T13:31:59.063Z,27.30
2018-12-07T13:34:27.874Z,26.93
2018-12-07T13:36:56.515Z,27.47
2018-12-07T13:39:25.104Z,27.77
2018-12-07T13:41:53.638Z,26.83
2018-12-07T13:44:22.576Z,26.53
2018-12-07T13:46:51.404Z,28.07
2018-12-07T13:49:20.102Z,26.50
2018-12-07T13:51:48.745Z,23.33
2018-12-07T13:54:17.534Z,25.80
2018-12-07T13:56:46.156Z,24.80
2018-12-07T13:59:14.713Z,22.87
2018-12-07T14:01:43.450Z,22.63
2018-12-07T14:04:12.393Z,25.27
2018-12-07T14:06:41.248Z,27.97
2018-12-07T14:09:09.977Z,26.87
2018-12-07T14:11:38.549Z,25.57
2018-12-07T14:14:07.079Z,26.87
2018-12-07T14:16:36.075Z,29.27
2018-12-07T14:19:05.005Z,27.37
2018-12-07T14:21:33.603Z,28.77
2018-12-07T14:24:02.558Z,29.90
2018-12-07T14:26:31.249Z,27.10
2018-12-07T14:28:59.935Z,33.37
2018-12-07T14:31:28.600Z,30.53
2018-12-07T14:33:57.637Z,30.57
2018-12-07T14:36:26.446Z,30.47
2018-12-07T14:38:55.289Z,31.67
2018-12-07T14:41:24.022Z,32.00
2018-12-07T14:43:52.885Z,30.27
2018-12-07T14:46:21.674Z,34.00
2018-12-07T14:48:50.545Z,33.80
2018-12-07T14:51:19.314Z,35.50
2018-12-07T14:53:48.135Z,32.73
2018-12-07T14:56:17.220Z,32.77
2018-12-07T14:58:45.944Z,34.13
2018-12-07T15:01:14.523Z,34.20
2018-12-07T15:03:43.106Z,35.97
2018-12-07T15:06:11.800Z,36.30
2018-12-07T15:08:40.417Z,37.20
2018-12-07T15:11:08.969Z,38.87
2018-12-07T15:13:37.635Z,36.17
2018-12-07T15:16:06.275Z,37.13
2018-12-07T15:18:35.230Z,37.60
2018-12-07T15:21:04.057Z,36.27
2018-12-07T15:23:32.802Z,34.77
2018-12-07T15:26:01.403Z,31.17
2018-12-07T15:28:30.476Z,36.23
2018-12-07T15:30:59.203Z,38.17
2018-12-07T15:33:27.854Z,39.53
2018-12-07T15:35:56.731Z,36.97
2018-12-07T15:38:25.737Z,36.53
2018-12-07T15:40:54.637Z,33.40
2018-12-07T15:43:23.429Z,34.87
2018-12-07T15:45:52.159Z,39.53
2018-12-07T15:48:20.890Z,42.17
2018-12-07T15:50:49.731Z,48.33
2018-12-07T15:53:18.855Z,50.90
2018-12-07T15:55:47.640Z,55.93
2018-12-07T15:58:16.462Z,90.53
2018-12-07T16:00:45.145Z,99.80
2018-12-07T16:03:14.052Z,84.93
2018-12-07T16:05:42.847Z,83.07
2018-12-07T16:08:11.900Z,75.17
2018-12-07T16:10:48.560Z,82.20
2018-12-07T16:13:11.298Z,72.33
2018-12-07T16:15:40.059Z,79.53
2018-12-07T16:18:09.743Z,75.20
2018-12-07T16:20:39.099Z,82.37
2018-12-07T16:23:08.099Z,65.80
2018-12-07T16:25:37.280Z,61.63
2018-12-07T16:28:06.022Z,63.20
2018-12-07T16:30:35.013Z,69.87
2018-12-07T16:33:03.553Z,78.87
2018-12-07T16:35:32.337Z,77.27
2018-12-07T16:38:01.288Z,79.47
2018-12-07T16:40:30.207Z,84.53
2018-12-07T16:42:59.098Z,80.00
2018-12-07T16:45:27.733Z,84.67
2018-12-07T16:47:56.560Z,81.67
2018-12-07T16:50:25.311Z,73.33
2018-12-07T16:52:54.401Z,69.27
2018-12-07T16:55:23.089Z,68.80
2018-12-07T16:57:51.652Z,62.63
2018-12-07T17:00:20.375Z,68.00
2018-12-07T17:02:49.252Z,63.40
2018-12-07T17:05:17.860Z,60.57
2018-12-07T17:07:46.760Z,66.10
2018-12-07T17:10:15.891Z,70.37
2018-12-07T17:12:44.842Z,64.80
2018-12-07T17:15:13.718Z,68.77
2018-12-07T17:17:42.500Z,67.47
2018-12-07T17:20:11.221Z,65.43
2018-12-07T17:22:39.800Z,61.47
2018-12-07T17:25:08.524Z,60.23
2018-12-07T17:27:37.486Z,62.67
2018-12-07T17:30:06.716Z,58.67
2018-12-07T17:32:35.524Z,53.93
2018-12-07T17:35:04.228Z,55.43
2018-12-07T17:37:33.247Z,47.17
2018-12-07T17:40:02.561Z,42.73
2018-12-07T17:42:31.309Z,45.50
2018-12-07T17:45:00.224Z,43.00
2018-12-07T17:47:28.957Z,46.60
2018-12-07T17:49:58.021Z,47.13
2018-12-07T17:52:26.928Z,48.73
2018-12-07T17:54:55.704Z,46.33
2018-12-07T17:57:24.461Z,50.90
2018-12-07T17:59:53.197Z,44.47
2018-12-07T18:02:21.792Z,47.83
2018-12-07T18:04:50.308Z,49.70
2018-12-07T18:07:18.840Z,49.80
2018-12-07T18:09:47.349Z,48.57
2018-12-07T18:12:15.949Z,48.53
2018-12-07T18:14:44.579Z,51.87
2018-12-07T18:17:13.125Z,52.37
2018-12-07T18:19:41.747Z,50.83
2018-12-07T18:22:10.392Z,52.87
2018-12-07T18:24:38.921Z,46.90
2018-12-07T18:27:07.506Z,47.63
2018-12-07T18:29:36.156Z,47.20
2018-12-07T18:32:05.008Z,43.67
2018-12-07T18:34:33.871Z,47.13
2018-12-07T18:37:02.711Z,45.70
2018-12-07T18:39:31.402Z,42.67
2018-12-07T18:42:00.375Z,46.93
2018-12-07T18:44:29.124Z,44.87
2018-12-07T18:46:58.249Z,71.50
2018-12-07T18:49:27.587Z,56.67
2018-12-07T18:51:57.025Z,51.53
2018-12-07T18:54:26.259Z,48.80
2018-12-07T18:56:54.976Z,48.53
2018-12-07T18:59:23.808Z,47.23
2018-12-07T19:01:52.633Z,47.73
2018-12-07T19:04:21.497Z,43.40
2018-12-07T19:06:50.197Z,43.27
2018-12-07T19:09:19.082Z,42.23
2018-12-07T19:11:48.054Z,39.07
2018-12-07T19:14:16.718Z,37.93
2018-12-07T19:16:45.344Z,38.23
2018-12-07T19:19:14.172Z,36.60
2018-12-07T19:21:42.843Z,36.97
2018-12-07T19:24:11.525Z,35.97
2018-12-07T19:26:40.250Z,39.57
2018-12-07T19:29:08.924Z,36.73
2018-12-07T19:31:37.764Z,37.80
2018-12-07T19:34:06.444Z,40.23
2018-12-07T19:36:41.928Z,43.43
2018-12-07T19:39:10.669Z,49.23
2018-12-07T19:41:39.603Z,46.57
2018-12-07T19:44:08.603Z,54.07
2018-12-07T19:46:37.570Z,47.43
2018-12-07T19:49:06.784Z,47.67
2018-12-07T19:51:35.730Z,48.80
2018-12-07T19:54:05.405Z,49.07
2018-12-07T19:56:34.362Z,54.20
2018-12-07T19:59:03.210Z,48.20
2018-12-07T20:01:32.435Z,47.83
2018-12-07T20:04:01.322Z,52.57
2018-12-07T20:06:30.497Z,53.30
2018-12-07T20:08:59.403Z,57.23
2018-12-07T20:11:28.558Z,65.53
2018-12-07T20:13:58.523Z,70.23
2018-12-07T20:16:27.906Z,70.53
2018-12-07T20:18:56.648Z,80.77
2018-12-07T20:21:25.480Z,91.17
2018-12-07T20:23:54.301Z,101.77
2018-12-07T20:26:23.771Z,88.83
2018-12-07T20:28:52.792Z,87.40
2018-12-07T20:31:21.992Z,73.53
2018-12-07T20:33:50.832Z,64.17
2018-12-07T20:36:19.588Z,56.53
2018-12-07T20:38:48.159Z,54.60
2018-12-07T20:41:16.919Z,56.40
2018-12-07T20:43:45.527Z,55.37
2018-12-07T20:46:14.146Z,53.10
2018-12-07T20:48:42.958Z,56.10
2018-12-07T20:51:12.010Z,49.60
2018-12-07T20:53:40.786Z,52.67
2018-12-07T20:56:09.887Z,49.83
2018-12-07T20:58:38.910Z,50.40
2018-12-07T21:01:08.374Z,45.57
2018-12-07T21:04:10.782Z,46.70
2018-12-07T21:07:01.300Z,43.33
2018-12-07T21:09:34.159Z,46.53
2018-12-07T21:31:47.808Z,40.50
2018-12-07T21:34:40.972Z,46.50
2018-12-07T21:37:09.958Z,43.97
2018-12-07T21:40:00.039Z,44.87
2018-12-07T21:42:28.916Z,52.93
2018-12-07T21:44:57.671Z,58.67
2018-12-07T21:48:33.673Z,47.87
2018-12-07T21:52:32.788Z,55.67
2018-12-07T21:55:01.580Z,54.57
2018-12-07T21:57:30.568Z,63.70
2018-12-07T21:59:59.361Z,51.13
2018-12-07T22:02:28.580Z,56.67
2018-12-07T22:04:57.619Z,57.17
2018-12-07T22:07:26.829Z,54.90
2018-12-07T22:09:55.945Z,58.80
2018-12-07T22:12:24.957Z,57.03
2018-12-07T22:14:53.950Z,48.77
2018-12-07T22:17:23.098Z,53.60
2018-12-07T22:19:52.390Z,51.57
2018-12-07T22:22:21.402Z,48.33
2018-12-07T22:24:50.006Z,48.17
2018-12-07T22:27:18.729Z,53.97
2018-12-07T22:29:47.643Z,54.43
2018-12-07T22:32:16.369Z,61.80
2018-12-07T22:34:45.019Z,72.20
2018-12-07T22:37:13.820Z,75.23
2018-12-07T22:39:42.547Z,52.77
2018-12-07T22:42:11.410Z,57.60
2018-12-07T22:44:40.401Z,50.37
2018-12-07T22:47:09.297Z,52.17
2018-12-07T22:49:38.555Z,55.90
2018-12-07T22:52:07.227Z,46.93
2018-12-07T22:54:36.051Z,47.07
2018-12-07T22:57:04.651Z,43.57
2018-12-07T22:59:33.276Z,44.23
2018-12-07T23:02:01.863Z,42.70
2018-12-07T23:04:30.419Z,49.37
2018-12-07T23:06:59.043Z,54.87
2018-12-07T23:09:27.664Z,45.37
2018-12-07T23:11:56.350Z,43.47
2018-12-07T23:14:24.922Z,39.73
2018-12-07T23:16:53.833Z,50.50
2018-12-07T23:19:22.405Z,57.07
2018-12-07T23:21:50.999Z,55.67
2018-12-07T23:24:19.550Z,59.17
2018-12-07T23:26:48.230Z,58.17
2018-12-07T23:29:21.529Z,51.50
2018-12-07T23:31:50.159Z,48.57
2018-12-07T23:34:18.782Z,49.63
2018-12-07T23:36:47.725Z,53.83
2018-12-07T23:39:16.316Z,55.63
2018-12-07T23:41:44.939Z,57.27
2018-12-07T23:44:13.541Z,54.60
2018-12-07T23:46:42.164Z,58.23
2018-12-07T23:49:10.764Z,53.70
2018-12-07T23:51:39.422Z,53.27
2018-12-07T23:54:08.004Z,61.83
2018-12-07T23:56:36.608Z,59.20
2018-12-07T23:59:05.248Z,57.63
